createdAt,value
2018-11-29T00:00:31.572Z,23.87
2018-11-29T00:03:00.553Z,26.68
2018-11-29T00:05:29.449Z,36.42
2018-11-29T00:07:58.361Z,21.07
2018-11-29T00:10:27.262Z,27.35
2018-11-29T00:12:56.161Z,24.20
2018-11-29T00:15:25.072Z,28.47
2018-11-29T00:17:54.042Z,22.58
2018-11-29T00:20:22.976Z,26.45
2018-11-29T00:22:52.169Z,22.90
2018-11-29T00:25:21.075Z,25.77
2018-11-29T00:27:49.973Z,26.73
2018-11-29T00:30:22.997Z,24.00
2018-11-29T00:32:53.869Z,22.50
2018-11-29T00:35:29.373Z,26.80
2018-11-29T00:37:58.285Z,19.50
2018-11-29T00:40:27.204Z,29.32
2018-11-29T00:42:56.094Z,20.82
2018-11-29T00:45:25.022Z,23.22
2018-11-29T00:47:53.901Z,31.93
2018-11-29T00:50:22.808Z,28.95
2018-11-29T00:52:51.944Z,23.52
2018-11-29T00:55:21.928Z,27.90
2018-11-29T00:57:51.925Z,25.35
2018-11-29T01:00:23.682Z,30.48
2018-11-29T01:02:52.665Z,29.15
2018-11-29T01:05:21.596Z,28.65
2018-11-29T01:07:50.505Z,25.57
2018-11-29T01:10:19.688Z,24.87
2018-11-29T01:12:49.281Z,34.90
2018-11-29T01:15:20.293Z,23.10
2018-11-29T01:17:50.241Z,33.58
2018-11-29T01:20:20.181Z,22.93
2018-11-29T01:22:49.182Z,27.70
2018-11-29T01:25:18.433Z,22.48
2018-11-29T01:27:48.499Z,21.65
2018-11-29T01:30:18.445Z,32.98
2018-11-29T01:32:47.357Z,30.32
2018-11-29T01:35:20.385Z,24.15
2018-11-29T01:37:49.576Z,24.20
2018-11-29T01:40:20.608Z,21.90
2018-11-29T01:42:54.873Z,27.25
2018-11-29T01:45:24.034Z,34.73
2018-11-29T01:47:52.973Z,27.00
2018-11-29T01:50:21.938Z,30.92
2018-11-29T01:52:50.873Z,31.35
2018-11-29T01:55:19.784Z,28.20
2018-11-29T01:57:48.689Z,32.38
2018-11-29T02:00:18.345Z,29.75
2018-11-29T02:02:48.467Z,25.52
2018-11-29T02:05:17.365Z,24.87
2018-11-29T02:07:46.297Z,30.10
2018-11-29T02:10:21.359Z,29.63
2018-11-29T02:12:50.261Z,25.60
2018-11-29T02:15:19.200Z,28.83
2018-11-29T02:17:48.132Z,29.55
2018-11-29T02:20:20.245Z,36.23
2018-11-29T02:22:49.196Z,24.37
2018-11-29T02:25:18.145Z,23.25
2018-11-29T02:27:47.081Z,27.30
2018-11-29T02:30:24.293Z,24.45
2018-11-29T02:32:53.217Z,27.87
2018-11-29T02:35:22.108Z,24.23
2018-11-29T02:37:51.111Z,27.75
2018-11-29T02:40:20.030Z,27.27
2018-11-29T02:42:49.921Z,29.75
2018-11-29T02:45:21.807Z,27.10
2018-11-29T02:47:50.730Z,25.27
2018-11-29T02:50:19.645Z,34.63
2018-11-29T02:52:48.544Z,28.32
2018-11-29T02:55:17.433Z,31.10
2018-11-29T02:57:46.353Z,30.00
2018-11-29T03:00:17.044Z,22.22
2018-11-29T03:02:46.095Z,34.73
2018-11-29T03:05:15.960Z,26.42
2018-11-29T03:07:44.867Z,29.27
2018-11-29T03:10:26.233Z,27.90
2018-11-29T03:12:55.265Z,27.02
2018-11-29T03:15:24.145Z,26.23
2018-11-29T03:17:53.056Z,28.52
2018-11-29T03:20:21.939Z,27.87
2018-11-29T03:22:50.845Z,21.77
2018-11-29T03:25:19.745Z,26.42
2018-11-29T03:27:49.686Z,31.42
2018-11-29T03:30:20.606Z,24.35
2018-11-29T03:32:49.552Z,29.57
2018-11-29T03:35:18.517Z,27.73
2018-11-29T03:37:47.417Z,26.50
2018-11-29T03:40:17.225Z,24.65
2018-11-29T03:42:46.334Z,33.80
2018-11-29T03:45:16.155Z,24.63
2018-11-29T03:47:45.696Z,19.73
2018-11-29T03:50:15.681Z,29.02
2018-11-29T03:52:44.617Z,30.88
2018-11-29T03:55:13.533Z,26.00
2018-11-29T03:57:42.442Z,26.65
2018-11-29T04:00:13.674Z,27.10
2018-11-29T04:02:43.536Z,26.25
2018-11-29T04:05:12.487Z,28.95
2018-11-29T04:07:41.383Z,24.75
2018-11-29T04:10:12.815Z,30.02
2018-11-29T04:12:41.792Z,26.85
2018-11-29T04:15:11.825Z,30.02
2018-11-29T04:17:41.352Z,29.55
2018-11-29T04:20:12.105Z,29.52
2018-11-29T04:22:41.009Z,29.45
2018-11-29T04:25:11.717Z,28.73
2018-11-29T04:27:40.656Z,28.23
2018-11-29T04:30:12.082Z,29.85
2018-11-29T04:32:41.000Z,25.57
2018-11-29T04:35:11.101Z,26.42
2018-11-29T04:37:40.085Z,25.45
2018-11-29T04:40:11.401Z,27.70
2018-11-29T04:42:40.304Z,27.55
2018-11-29T04:45:10.729Z,29.72
2018-11-29T04:47:39.634Z,28.62
2018-11-29T04:50:08.605Z,25.35
2018-11-29T04:52:37.477Z,27.98
2018-11-29T04:55:07.562Z,24.05
2018-11-29T04:57:36.707Z,34.55
2018-11-29T05:00:11.178Z,24.10
2018-11-29T05:02:40.109Z,23.70
2018-11-29T05:05:09.569Z,27.22
2018-11-29T05:07:38.506Z,24.40
2018-11-29T05:10:09.118Z,32.05
2018-11-29T05:12:38.033Z,23.62
2018-11-29T05:15:08.930Z,21.52
2018-11-29T05:17:37.844Z,27.13
2018-11-29T05:20:06.848Z,26.10
2018-11-29T05:22:35.778Z,23.55
2018-11-29T05:25:05.138Z,23.00
2018-11-29T05:27:34.029Z,22.90
2018-11-29T05:30:10.264Z,24.02
2018-11-29T05:32:39.164Z,23.07
2018-11-29T05:35:09.532Z,23.55
2018-11-29T05:37:38.447Z,18.92
2018-11-29T05:40:10.451Z,30.70
2018-11-29T05:42:39.377Z,22.87
2018-11-29T05:45:09.440Z,18.02
2018-11-29T05:47:38.436Z,20.25
2018-11-29T05:50:09.467Z,22.70
2018-11-29T05:52:38.360Z,30.00
2018-11-29T05:55:09.145Z,24.77
2018-11-29T05:57:38.128Z,20.00
2018-11-29T06:00:10.600Z,19.65
2018-11-29T06:02:39.610Z,20.68
2018-11-29T06:05:09.740Z,17.70
2018-11-29T06:07:38.620Z,17.12
2018-11-29T06:10:17.569Z,17.77
2018-11-29T06:12:47.200Z,19.37
2018-11-29T06:15:16.314Z,21.10
2018-11-29T06:17:45.204Z,16.05
2018-11-29T06:20:15.587Z,20.15
2018-11-29T06:22:44.579Z,19.35
2018-11-29T06:25:13.557Z,21.95
2018-11-29T06:27:42.765Z,21.12
2018-11-29T06:30:14.308Z,18.50
2018-11-29T06:32:43.286Z,16.55
2018-11-29T06:35:12.548Z,21.20
2018-11-29T06:37:41.440Z,18.25
2018-11-29T06:40:12.473Z,17.12
2018-11-29T06:42:41.417Z,21.73
2018-11-29T06:45:18.319Z,17.67
2018-11-29T06:47:48.142Z,22.85
2018-11-29T06:50:17.205Z,15.53
2018-11-29T06:52:47.217Z,16.73
2018-11-29T06:55:21.432Z,18.85
2018-11-29T06:57:50.633Z,12.70
2018-11-29T07:00:24.173Z,16.45
2018-11-29T07:02:53.077Z,16.23
2018-11-29T07:05:22.040Z,15.75
2018-11-29T07:07:51.033Z,13.28
2018-11-29T07:10:36.821Z,17.05
2018-11-29T07:13:06.984Z,14.15
2018-11-29T07:15:36.961Z,12.13
2018-11-29T07:20:39.174Z,15.78
2018-11-29T07:23:08.083Z,19.40
2018-11-29T07:25:36.987Z,19.65
2018-11-29T07:28:05.963Z,15.25
2018-11-29T07:30:34.925Z,17.55
2018-11-29T07:33:03.845Z,15.60
2018-11-29T07:35:32.796Z,15.88
2018-11-29T07:38:01.700Z,17.15
2018-11-29T07:40:30.660Z,15.43
2018-11-29T07:42:59.610Z,15.63
2018-11-29T07:45:28.497Z,15.35
2018-11-29T07:47:57.404Z,16.35
2018-11-29T07:50:26.332Z,14.73
2018-11-29T07:52:55.261Z,13.08
2018-11-29T07:55:24.291Z,14.25
2018-11-29T07:57:53.700Z,13.18
2018-11-29T08:00:29.353Z,14.13
2018-11-29T08:02:58.294Z,16.45
2018-11-29T08:05:27.188Z,15.40
2018-11-29T08:07:56.113Z,15.48
2018-11-29T08:10:25.054Z,14.63
2018-11-29T08:12:54.017Z,10.78
2018-11-29T08:15:22.933Z,17.77
2018-11-29T08:17:51.838Z,13.15
2018-11-29T08:20:21.770Z,11.83
2018-11-29T08:22:50.677Z,14.83
2018-11-29T08:25:19.589Z,15.40
2018-11-29T08:27:48.481Z,15.13
2018-11-29T08:30:17.434Z,20.23
2018-11-29T08:32:46.333Z,15.32
2018-11-29T08:35:16.035Z,16.70
2018-11-29T08:37:46.710Z,13.22
2018-11-29T08:40:19.081Z,20.92
2018-11-29T08:42:48.222Z,13.93
2018-11-29T08:45:17.166Z,15.78
2018-11-29T08:47:46.421Z,20.23
2018-11-29T08:50:15.617Z,18.95
2018-11-29T08:52:46.225Z,15.45
2018-11-29T08:55:16.269Z,15.95
2018-11-29T08:57:45.543Z,14.33
2018-11-29T09:00:17.521Z,15.78
2018-11-29T09:02:46.425Z,14.85
2018-11-29T09:05:15.652Z,13.40
2018-11-29T09:07:45.506Z,17.17
2018-11-29T09:10:16.730Z,16.60
2018-11-29T09:12:45.629Z,12.20
2018-11-29T09:15:16.005Z,13.58
2018-11-29T09:17:45.136Z,18.45
2018-11-29T09:20:18.029Z,19.02
2018-11-29T09:22:46.942Z,16.82
2018-11-29T09:25:16.844Z,18.92
2018-11-29T09:27:45.765Z,19.82
2018-11-29T09:30:16.714Z,16.85
2018-11-29T09:32:46.421Z,14.58
2018-11-29T09:35:15.352Z,16.87
2018-11-29T09:37:44.258Z,14.05
2018-11-29T09:40:15.974Z,14.85
2018-11-29T09:42:45.110Z,19.92
2018-11-29T09:45:16.209Z,15.00
2018-11-29T09:47:46.399Z,16.73
2018-11-29T09:50:15.981Z,15.70
2018-11-29T09:52:44.906Z,16.90
2018-11-29T09:55:14.833Z,16.48
2018-11-29T09:57:44.337Z,13.22
2018-11-29T10:00:28.775Z,13.98
2018-11-29T10:03:05.543Z,14.58
2018-11-29T10:05:34.392Z,12.93
2018-11-29T10:08:03.313Z,15.45
2018-11-29T10:10:32.200Z,17.17
2018-11-29T10:13:01.133Z,17.45
2018-11-29T10:15:30.044Z,16.70
2018-11-29T10:17:58.955Z,16.97
2018-11-29T10:20:27.852Z,18.75
2018-11-29T10:22:56.771Z,16.48
2018-11-29T10:25:25.698Z,14.03
2018-11-29T10:27:56.536Z,14.40
2018-11-29T10:30:27.587Z,21.90
2018-11-29T10:32:56.552Z,13.88
2018-11-29T10:35:25.809Z,12.70
2018-11-29T10:37:54.732Z,12.35
2018-11-29T10:40:23.673Z,13.30
2018-11-29T10:42:52.610Z,13.40
2018-11-29T10:45:21.665Z,14.90
2018-11-29T10:47:52.819Z,14.33
2018-11-29T10:50:21.268Z,11.50
2018-11-29T10:52:50.215Z,28.47
2018-11-29T10:55:19.853Z,16.10
2018-11-29T10:57:48.866Z,15.70
2018-11-29T11:00:26.230Z,13.65
2018-11-29T11:03:05.425Z,11.43
2018-11-29T11:05:34.407Z,10.40
2018-11-29T11:08:08.148Z,13.30
2018-11-29T11:10:32.272Z,14.05
2018-11-29T11:13:01.173Z,10.75
2018-11-29T11:15:30.090Z,13.95
2018-11-29T11:17:59.005Z,13.32
2018-11-29T11:20:27.898Z,13.30
2018-11-29T11:22:56.809Z,13.18
2018-11-29T11:25:25.767Z,11.88
2018-11-29T11:27:54.685Z,11.20
2018-11-29T11:30:24.409Z,12.65
2018-11-29T11:32:53.449Z,10.25
2018-11-29T11:35:22.400Z,9.65
2018-11-29T11:37:51.326Z,14.73
2018-11-29T11:40:20.257Z,11.00
2018-11-29T11:42:49.179Z,10.68
2018-11-29T11:45:20.031Z,10.03
2018-11-29T11:47:49.049Z,13.48
2018-11-29T11:50:20.437Z,10.65
2018-11-29T11:52:50.309Z,8.63
2018-11-29T11:55:19.510Z,14.85
2018-11-29T11:57:48.657Z,17.42
2018-11-29T12:00:21.708Z,10.32
2018-11-29T12:02:53.013Z,10.38
2018-11-29T12:05:21.942Z,10.35
2018-11-29T12:07:50.877Z,10.75
2018-11-29T12:10:19.963Z,10.48
2018-11-29T12:12:48.907Z,9.25
2018-11-29T12:15:17.848Z,8.55
2018-11-29T12:17:47.392Z,9.68
2018-11-29T12:20:19.358Z,8.08
2018-11-29T12:22:48.386Z,10.55
2018-11-29T12:25:19.913Z,11.25
2018-11-29T12:27:48.949Z,13.13
2018-11-29T12:30:22.198Z,6.90
2018-11-29T12:32:52.057Z,8.68
2018-11-29T12:35:20.985Z,13.93
2018-11-29T12:37:56.222Z,12.07
2018-11-29T12:40:31.370Z,10.00
2018-11-29T12:43:06.806Z,5.45
2018-11-29T12:45:35.979Z,7.30
2018-11-29T12:48:04.930Z,6.30
2018-11-29T12:50:36.114Z,9.40
2018-11-29T12:53:05.335Z,5.70
2018-11-29T12:55:34.265Z,7.37
2018-11-29T12:58:06.144Z,7.50
2018-11-29T13:00:32.094Z,8.75
2018-11-29T13:03:01.009Z,7.83
2018-11-29T13:05:29.957Z,7.12
2018-11-29T13:07:58.922Z,10.05
2018-11-29T13:10:28.242Z,8.10
2018-11-29T13:12:57.142Z,7.30
2018-11-29T13:15:31.816Z,8.65
2018-11-29T13:18:02.309Z,7.75
2018-11-29T13:20:32.579Z,6.30
2018-11-29T13:23:00.183Z,8.48
2018-11-29T13:25:29.437Z,9.25
2018-11-29T13:27:58.357Z,8.65
2018-11-29T13:30:27.281Z,13.43
2018-11-29T13:32:57.043Z,7.45
2018-11-29T13:35:31.445Z,9.30
2018-11-29T13:38:03.005Z,9.80
2018-11-29T13:40:31.946Z,7.08
2018-11-29T13:43:00.871Z,14.00
2018-11-29T13:45:29.822Z,6.90
2018-11-29T13:47:58.737Z,7.90
2018-11-29T13:50:27.656Z,8.03
2018-11-29T13:52:56.572Z,7.50
2018-11-29T13:55:25.682Z,8.73
2018-11-29T13:57:54.667Z,7.08
2018-11-29T14:00:24.580Z,6.42
2018-11-29T14:02:55.069Z,8.08
2018-11-29T14:05:23.993Z,6.35
2018-11-29T14:07:52.911Z,6.10
2018-11-29T14:10:22.977Z,5.83
2018-11-29T14:12:53.085Z,6.10
2018-11-29T14:15:23.458Z,3.85
2018-11-29T14:17:52.403Z,12.45
2018-11-29T14:20:21.336Z,12.18
2018-11-29T14:22:50.294Z,4.58
2018-11-29T14:25:19.224Z,6.97
2018-11-29T14:27:51.473Z,7.35
2018-11-29T14:30:21.772Z,13.20
2018-11-29T14:32:50.889Z,6.47
2018-11-29T14:35:19.821Z,6.58
2018-11-29T14:37:48.765Z,6.90
2018-11-29T14:40:19.956Z,5.60
2018-11-29T14:42:48.922Z,6.78
2018-11-29T14:45:19.069Z,5.08
2018-11-29T14:47:48.073Z,7.40
2018-11-29T14:50:26.394Z,5.33
2018-11-29T14:52:55.339Z,5.05
2018-11-29T14:55:24.295Z,8.53
2018-11-29T14:57:53.189Z,5.95
2018-11-29T15:00:22.123Z,9.68
2018-11-29T15:02:51.118Z,5.35
2018-11-29T15:05:25.343Z,12.47
2018-11-29T15:07:54.292Z,8.00
2018-11-29T15:10:23.276Z,6.03
2018-11-29T15:12:52.210Z,4.75
2018-11-29T15:15:21.182Z,4.40
2018-11-29T15:17:51.165Z,5.62
2018-11-29T15:20:21.813Z,4.53
2018-11-29T15:22:50.734Z,8.63
2018-11-29T15:25:19.661Z,7.28
2018-11-29T15:27:48.589Z,5.60
2018-11-29T15:30:20.483Z,8.63
2018-11-29T15:32:48.892Z,6.12
2018-11-29T15:35:17.882Z,10.45
2018-11-29T15:37:46.816Z,4.83
2018-11-29T15:40:16.781Z,6.87
2018-11-29T15:42:46.046Z,6.45
2018-11-29T15:45:19.266Z,6.95
2018-11-29T15:47:48.237Z,6.53
2018-11-29T15:50:17.494Z,4.40
2018-11-29T15:52:46.537Z,4.28
2018-11-29T15:55:17.541Z,4.75
2018-11-29T15:57:47.607Z,5.85
2018-11-29T16:00:20.202Z,5.70
2018-11-29T16:02:49.778Z,6.95
2018-11-29T16:05:18.816Z,5.33
2018-11-29T16:07:47.734Z,8.63
2018-11-29T16:10:20.814Z,3.80
2018-11-29T16:12:49.741Z,6.37
2018-11-29T16:15:19.497Z,6.40
2018-11-29T16:17:49.503Z,6.40
2018-11-29T16:20:21.025Z,5.50
2018-11-29T16:22:49.979Z,6.42
2018-11-29T16:25:18.917Z,5.92
2018-11-29T16:27:47.909Z,4.03
2018-11-29T16:30:30.993Z,4.25
2018-11-29T16:33:02.185Z,6.00
2018-11-29T16:35:31.290Z,5.30
2018-11-29T16:38:00.220Z,4.37
2018-11-29T16:40:29.140Z,6.70
2018-11-29T16:42:58.155Z,6.75
2018-11-29T16:45:27.222Z,8.38
2018-11-29T16:47:56.071Z,4.62
2018-11-29T16:50:25.004Z,7.97
2018-11-29T16:52:54.011Z,6.90
2018-11-29T16:55:22.929Z,7.30
2018-11-29T16:57:53.870Z,5.87
2018-11-29T17:00:23.589Z,7.42
2018-11-29T17:02:52.515Z,4.53
2018-11-29T17:05:21.465Z,7.70
2018-11-29T17:07:50.373Z,4.80
2018-11-29T17:10:20.681Z,5.25
2018-11-29T17:12:52.213Z,6.15
2018-11-29T17:15:21.177Z,7.55
2018-11-29T17:17:50.106Z,5.35
2018-11-29T17:20:20.191Z,6.53
2018-11-29T17:22:51.117Z,5.15
2018-11-29T17:25:20.065Z,7.15
2018-11-29T17:27:49.000Z,6.15
2018-11-29T17:30:21.312Z,7.35
2018-11-29T17:32:51.554Z,11.00
2018-11-29T17:35:20.494Z,8.05
2018-11-29T17:37:49.945Z,8.15
2018-11-29T17:40:20.717Z,8.20
2018-11-29T17:42:50.480Z,9.55
2018-11-29T17:45:20.614Z,9.35
2018-11-29T17:47:50.710Z,7.67
2018-11-29T17:50:22.046Z,6.25
2018-11-29T17:52:50.956Z,12.80
2018-11-29T17:55:19.896Z,6.97
2018-11-29T17:57:48.838Z,11.33
2018-11-29T18:00:20.077Z,10.98
2018-11-29T18:02:49.102Z,7.70
2018-11-29T18:05:18.683Z,8.60
2018-11-29T18:07:47.562Z,8.78
2018-11-29T18:10:18.617Z,8.58
2018-11-29T18:12:50.976Z,12.40
2018-11-29T18:15:21.526Z,7.20
2018-11-29T18:17:50.427Z,7.53
2018-11-29T18:20:19.341Z,11.97
2018-11-29T18:22:48.346Z,10.65
2018-11-29T18:25:17.708Z,10.75
2018-11-29T18:27:49.959Z,12.07
2018-11-29T18:30:20.213Z,10.05
2018-11-29T18:32:49.192Z,7.87
2018-11-29T18:35:18.296Z,11.18
2018-11-29T18:37:47.303Z,14.60
2018-11-29T18:40:17.629Z,9.00
2018-11-29T18:42:52.953Z,11.48
2018-11-29T18:45:21.947Z,12.55
2018-11-29T18:47:51.998Z,12.73
2018-11-29T18:50:23.242Z,11.08
2018-11-29T18:52:52.436Z,9.90
2018-11-29T18:55:22.495Z,11.85
2018-11-29T18:57:51.752Z,12.35
2018-11-29T19:00:22.918Z,12.73
2018-11-29T19:02:56.737Z,10.70
2018-11-29T19:05:20.872Z,12.13
2018-11-29T19:07:49.793Z,13.58
2018-11-29T19:10:19.254Z,13.43
2018-11-29T19:13:11.425Z,7.47
2018-11-29T19:15:40.513Z,14.03
2018-11-29T19:18:10.761Z,13.55
2018-11-29T19:20:39.048Z,13.30
2018-11-29T19:23:07.969Z,12.23
2018-11-29T19:25:37.145Z,13.38
2018-11-29T19:28:07.154Z,13.30
2018-11-29T19:30:36.686Z,11.53
2018-11-29T19:33:17.535Z,13.38
2018-11-29T19:35:45.498Z,11.35
2018-11-29T19:38:14.505Z,16.57
2018-11-29T19:40:43.530Z,12.80
2018-11-29T19:43:12.356Z,13.68
2018-11-29T19:45:41.271Z,14.10
2018-11-29T19:48:10.837Z,11.65
2018-11-29T19:50:39.780Z,11.80
2018-11-29T19:53:12.903Z,14.35
2018-11-29T19:55:42.597Z,11.75
2018-11-29T19:58:11.360Z,15.25
2018-11-29T20:00:40.291Z,14.78
2018-11-29T20:03:09.206Z,10.82
2018-11-29T20:05:38.198Z,12.55
2018-11-29T20:08:08.089Z,15.23
2018-11-29T20:10:37.053Z,13.28
2018-11-29T20:13:09.045Z,9.45
2018-11-29T20:15:40.592Z,11.22
2018-11-29T20:18:11.045Z,13.15
2018-11-29T20:20:39.953Z,12.78
2018-11-29T20:23:10.155Z,14.35
2018-11-29T20:25:44.658Z,13.93
2018-11-29T20:28:14.526Z,13.65
2018-11-29T20:30:44.444Z,11.25
2018-11-29T20:33:13.380Z,13.28
2018-11-29T20:35:42.294Z,13.10
2018-11-29T20:38:11.321Z,14.65
2018-11-29T20:40:42.013Z,14.18
2018-11-29T20:43:10.978Z,12.40
2018-11-29T20:45:46.498Z,10.60
2018-11-29T20:48:18.009Z,12.43
2018-11-29T20:50:47.500Z,16.10
2018-11-29T20:53:19.861Z,15.43
2018-11-29T20:55:48.778Z,15.55
2018-11-29T20:58:17.713Z,11.93
2018-11-29T21:00:46.678Z,14.70
2018-11-29T21:03:15.606Z,11.93
2018-11-29T21:05:44.545Z,14.65
2018-11-29T21:08:13.805Z,13.45
2018-11-29T21:10:42.737Z,13.62
2018-11-29T21:13:11.649Z,15.23
2018-11-29T21:15:41.922Z,12.25
2018-11-29T21:18:12.376Z,17.30
2018-11-29T21:20:42.225Z,14.30
2018-11-29T21:23:12.729Z,12.33
2018-11-29T21:25:41.657Z,14.20
2018-11-29T21:28:10.607Z,13.85
2018-11-29T21:30:39.501Z,15.72
2018-11-29T21:33:09.059Z,15.63
2018-11-29T21:35:38.214Z,13.05
2018-11-29T21:38:12.104Z,13.28
2018-11-29T21:40:42.708Z,12.68
2018-11-29T21:43:11.631Z,14.80
2018-11-29T21:45:40.521Z,15.90
2018-11-29T21:48:09.517Z,12.23
2018-11-29T21:50:38.449Z,12.85
2018-11-29T21:53:07.651Z,16.87
2018-11-29T21:55:36.690Z,14.93
2018-11-29T21:58:05.634Z,13.43
2018-11-29T22:00:34.584Z,14.20
2018-11-29T22:03:03.533Z,14.10
2018-11-29T22:05:32.687Z,18.25
2018-11-29T22:08:01.629Z,13.90
2018-11-29T22:10:30.557Z,10.90
2018-11-29T22:13:00.733Z,13.32
2018-11-29T22:15:28.437Z,15.85
2018-11-29T22:18:19.486Z,15.38
2018-11-29T22:20:53.492Z,19.87
2018-11-29T22:23:22.388Z,15.60
2018-11-29T22:25:51.859Z,12.23
2018-11-29T22:28:20.787Z,18.75
2018-11-29T22:30:49.713Z,14.18
2018-11-29T22:33:18.698Z,17.32
2018-11-29T22:35:47.722Z,13.65
2018-11-29T22:38:16.649Z,14.47
2018-11-29T22:40:45.578Z,17.48
2018-11-29T22:43:14.495Z,16.10
2018-11-29T22:45:43.422Z,17.80
2018-11-29T22:48:12.372Z,16.57
2018-11-29T22:50:41.289Z,15.95
2018-11-29T22:53:10.269Z,15.05
2018-11-29T22:55:39.164Z,15.78
2018-11-29T22:58:08.098Z,13.55
2018-11-29T23:00:42.432Z,18.50
2018-11-29T23:03:12.724Z,14.43
2018-11-29T23:05:41.659Z,15.05
2018-11-29T23:08:10.605Z,16.60
2018-11-29T23:10:39.776Z,14.95
2018-11-29T23:13:08.692Z,16.23
2018-11-29T23:15:37.649Z,15.15
2018-11-29T23:18:07.002Z,13.15
2018-11-29T23:20:35.937Z,15.58
2018-11-29T23:23:05.033Z,15.48
2018-11-29T23:25:34.254Z,14.15
2018-11-29T23:28:03.952Z,16.07
2018-11-29T23:30:32.941Z,17.20
2018-11-29T23:33:01.825Z,15.53
2018-11-29T23:35:31.707Z,16.85
2018-11-29T23:38:00.675Z,14.47
2018-11-29T23:40:29.666Z,12.50
2018-11-29T23:42:58.595Z,14.15
2018-11-29T23:45:27.509Z,14.18
2018-11-29T23:47:56.453Z,12.53
2018-11-29T23:50:25.394Z,16.45
2018-11-29T23:52:54.315Z,18.87
2018-11-29T23:55:23.453Z,13.60
2018-11-29T23:57:53.091Z,19.05
